createdAt,value
2017-06-23T00:00:59.220Z,29.20
2017-06-23T00:03:28.112Z,31.10
2017-06-23T00:05:56.911Z,29.63
2017-06-23T00:08:25.699Z,28.27
2017-06-23T00:10:54.751Z,30.63
2017-06-23T00:13:22.896Z,29.90
2017-06-23T00:15:51.660Z,30.80
2017-06-23T00:18:20.654Z,31.27
2017-06-23T00:20:48.854Z,31.33
2017-06-23T00:23:17.035Z,32.13
2017-06-23T00:25:45.327Z,32.70
2017-06-23T00:28:13.687Z,30.60
2017-06-23T00:30:41.827Z,32.83
2017-06-23T00:33:10.173Z,32.80
2017-06-23T00:35:39.615Z,31.73
2017-06-23T00:38:07.762Z,32.50
2017-06-23T00:40:36.675Z,33.53
2017-06-23T00:43:04.907Z,32.60
2017-06-23T00:45:33.770Z,34.20
2017-06-23T00:48:02.060Z,34.10
2017-06-23T00:50:30.244Z,36.40
2017-06-23T00:52:58.383Z,35.67
2017-06-23T00:55:26.725Z,32.60
2017-06-23T00:57:54.907Z,33.77
2017-06-23T01:00:23.139Z,34.00
2017-06-23T01:02:51.400Z,33.67
2017-06-23T01:05:19.736Z,34.47
2017-06-23T01:07:47.923Z,35.50
2017-06-23T01:10:16.263Z,36.03
2017-06-23T01:12:44.426Z,36.03
2017-06-23T01:15:12.572Z,37.03
2017-06-23T01:17:41.070Z,38.67
2017-06-23T01:20:09.259Z,36.67
2017-06-23T01:22:38.024Z,35.57
2017-06-23T01:25:06.268Z,36.00
2017-06-23T01:40:13.891Z,36.87
2017-06-23T01:42:42.581Z,33.90
2017-06-23T01:45:11.363Z,33.53
2017-06-23T01:47:39.967Z,35.50
2017-06-23T01:50:08.627Z,35.03
2017-06-23T01:52:36.815Z,35.57
2017-06-23T01:55:04.987Z,36.37
2017-06-23T01:57:33.585Z,38.27
2017-06-23T02:00:02.051Z,36.90
2017-06-23T02:02:30.947Z,34.93
2017-06-23T02:04:59.531Z,34.17
2017-06-23T02:07:27.718Z,36.70
2017-06-23T02:09:56.491Z,38.70
2017-06-23T02:12:25.239Z,39.63
2017-06-23T02:14:54.683Z,40.33
2017-06-23T02:17:23.379Z,38.37
2017-06-23T02:19:51.483Z,39.87
2017-06-23T02:22:19.539Z,39.97
2017-06-23T02:24:48.157Z,41.20
2017-06-23T02:27:16.306Z,39.63
2017-06-23T02:29:45.075Z,42.20
2017-06-23T02:32:13.792Z,39.97
2017-06-23T02:34:42.395Z,40.83
2017-06-23T02:37:10.543Z,43.13
2017-06-23T02:39:38.771Z,41.60
2017-06-23T02:42:06.963Z,43.60
2017-06-23T02:44:35.103Z,44.13
2017-06-23T02:47:03.348Z,42.13
2017-06-23T02:49:31.403Z,42.67
2017-06-23T02:51:59.468Z,42.73
2017-06-23T02:54:27.652Z,43.87
2017-06-23T02:56:55.746Z,45.63
2017-06-23T02:59:23.801Z,43.47
2017-06-23T03:01:52.060Z,45.10
2017-06-23T03:04:20.755Z,45.37
2017-06-23T03:06:48.895Z,46.20
2017-06-23T03:09:18.359Z,44.70
2017-06-23T03:11:46.920Z,46.17
2017-06-23T03:14:15.563Z,45.97
2017-06-23T03:16:43.903Z,47.27
2017-06-23T03:19:12.043Z,45.97
2017-06-23T03:21:40.231Z,46.73
2017-06-23T03:24:08.496Z,46.40
2017-06-23T03:26:36.639Z,44.93
2017-06-23T03:29:04.780Z,45.33
2017-06-23T03:31:33.039Z,45.47
2017-06-23T03:34:01.135Z,44.07
2017-06-23T03:36:29.240Z,45.13
2017-06-23T03:38:57.487Z,47.80
2017-06-23T03:41:25.777Z,47.40
2017-06-23T03:43:54.060Z,43.90
2017-06-23T03:46:22.235Z,42.40
2017-06-23T03:48:50.372Z,46.47
2017-06-23T03:51:18.550Z,46.90
2017-06-23T03:53:47.223Z,46.63
2017-06-23T03:56:15.919Z,44.83
2017-06-23T03:58:44.763Z,49.03
2017-06-23T04:01:14.212Z,46.37
2017-06-23T04:03:42.755Z,46.33
2017-06-23T04:06:12.048Z,46.97
2017-06-23T04:08:41.551Z,44.50
2017-06-23T04:11:10.196Z,45.13
2017-06-23T04:13:38.831Z,45.30
2017-06-23T04:16:08.375Z,42.63
2017-06-23T04:18:37.131Z,38.97
2017-06-23T04:21:06.467Z,42.20
2017-06-23T04:23:35.473Z,41.97
2017-06-23T04:26:04.160Z,40.87
2017-06-23T04:28:33.052Z,41.07
2017-06-23T04:31:01.755Z,37.60
2017-06-23T04:33:29.935Z,38.30
2017-06-23T04:35:57.993Z,37.43
2017-06-23T04:38:26.207Z,37.60
2017-06-23T04:40:54.344Z,38.77
2017-06-23T04:43:22.438Z,37.60
2017-06-23T04:45:50.824Z,36.50
2017-06-23T04:48:19.003Z,35.53
2017-06-23T04:50:47.128Z,36.80
2017-06-23T04:53:16.031Z,35.83
2017-06-23T04:55:44.216Z,35.33
2017-06-23T04:58:12.303Z,33.17
2017-06-23T05:00:40.988Z,32.57
2017-06-23T05:03:09.095Z,29.17
2017-06-23T05:05:38.440Z,29.23
2017-06-23T05:08:06.659Z,28.33
2017-06-23T05:10:34.795Z,28.33
2017-06-23T05:13:02.940Z,25.53
2017-06-23T05:15:31.244Z,26.23
2017-06-23T05:17:59.991Z,27.33
2017-06-23T05:20:28.111Z,25.67
2017-06-23T05:22:56.388Z,23.10
2017-06-23T05:25:24.531Z,23.73
2017-06-23T05:27:52.707Z,25.08
2017-06-23T05:30:20.999Z,24.30
2017-06-23T05:32:49.499Z,23.90
2017-06-23T05:35:18.303Z,24.60
2017-06-23T05:37:46.975Z,23.13
2017-06-23T05:40:15.160Z,24.90
2017-06-23T05:42:43.308Z,23.30
2017-06-23T05:45:11.568Z,22.83
2017-06-23T05:47:41.049Z,23.02
2017-06-23T05:50:09.210Z,22.58
2017-06-23T05:52:37.463Z,21.00
2017-06-23T05:55:05.580Z,21.62
2017-06-23T05:57:33.640Z,20.17
2017-06-23T06:00:01.915Z,20.67
2017-06-23T06:02:29.979Z,20.23
2017-06-23T06:04:58.136Z,20.83
2017-06-23T06:07:26.367Z,20.10
2017-06-23T06:09:54.439Z,21.37
2017-06-23T06:12:22.580Z,19.60
2017-06-23T06:14:50.803Z,19.15
2017-06-23T06:17:19.531Z,19.33
2017-06-23T06:19:48.043Z,19.80
2017-06-23T06:22:16.796Z,20.00
2017-06-23T06:24:45.483Z,18.30
2017-06-23T06:27:14.168Z,17.80
2017-06-23T06:29:43.073Z,18.60
2017-06-23T06:32:11.761Z,18.12
2017-06-23T06:34:41.256Z,16.98
2017-06-23T06:37:09.927Z,17.77
2017-06-23T06:39:38.620Z,18.10
2017-06-23T06:42:07.311Z,18.65
2017-06-23T06:44:36.108Z,17.87
2017-06-23T06:47:04.795Z,17.85
2017-06-23T06:49:33.148Z,18.92
2017-06-23T06:52:02.063Z,17.50
2017-06-23T06:54:30.662Z,16.83
2017-06-23T06:56:58.874Z,14.85
2017-06-23T06:59:28.640Z,16.00
2017-06-23T07:01:57.440Z,17.40
2017-06-23T07:04:26.020Z,17.20
2017-06-23T07:06:54.691Z,16.73
2017-06-23T07:09:23.398Z,18.05
2017-06-23T07:11:52.232Z,17.77
2017-06-23T07:14:20.495Z,18.45
2017-06-23T07:16:48.595Z,18.13
2017-06-23T07:19:17.231Z,19.00
2017-06-23T07:21:46.780Z,19.27
2017-06-23T07:24:16.119Z,17.27
2017-06-23T07:26:44.300Z,19.05
2017-06-23T07:29:13.084Z,19.60
2017-06-23T07:31:41.771Z,21.67
2017-06-23T07:34:10.567Z,20.17
2017-06-23T07:36:39.360Z,24.80
2017-06-23T07:39:08.075Z,29.10
2017-06-23T07:41:36.672Z,27.30
2017-06-23T07:44:04.879Z,25.90
2017-06-23T07:46:33.431Z,22.52
2017-06-23T07:49:01.508Z,24.50
2017-06-23T07:51:29.867Z,27.25
2017-06-23T07:53:58.076Z,24.63
2017-06-23T07:56:26.259Z,23.45
2017-06-23T07:58:54.470Z,27.15
2017-06-23T08:01:23.164Z,29.40
2017-06-23T08:03:51.227Z,27.73
2017-06-23T08:06:19.483Z,29.87
2017-06-23T08:08:48.195Z,27.80
2017-06-23T08:11:17.191Z,27.47
2017-06-23T08:13:46.083Z,29.23
2017-06-23T08:16:14.883Z,28.53
2017-06-23T08:18:42.948Z,30.00
2017-06-23T08:21:11.240Z,29.43
2017-06-23T08:23:39.382Z,28.73
2017-06-23T08:26:07.476Z,27.53
2017-06-23T08:28:35.691Z,29.33
2017-06-23T08:31:03.795Z,30.40
2017-06-23T08:33:31.872Z,30.90
2017-06-23T08:36:00.091Z,31.50
2017-06-23T08:38:28.188Z,30.30
2017-06-23T08:40:56.288Z,31.17
2017-06-23T08:43:24.556Z,30.93
2017-06-23T08:45:52.652Z,33.07
2017-06-23T08:48:20.755Z,30.50
2017-06-23T08:50:49.632Z,30.03
2017-06-23T08:53:18.321Z,30.87
2017-06-23T08:55:46.999Z,30.83
2017-06-23T08:58:15.260Z,30.33
2017-06-23T09:00:44.189Z,28.73
2017-06-23T09:03:12.763Z,30.33
2017-06-23T09:05:41.547Z,29.03
2017-06-23T09:08:10.295Z,29.37
2017-06-23T09:10:39.739Z,27.47
2017-06-23T09:13:07.965Z,27.33
2017-06-23T09:15:36.454Z,28.13
2017-06-23T09:18:05.748Z,27.13
2017-06-23T09:20:35.421Z,28.07
2017-06-23T09:23:03.840Z,25.33
2017-06-23T09:25:33.360Z,25.87
2017-06-23T09:28:02.968Z,27.57
2017-06-23T09:30:32.206Z,25.70
2017-06-23T09:33:00.799Z,26.27
2017-06-23T09:35:30.399Z,26.57
2017-06-23T09:37:58.568Z,25.00
2017-06-23T09:40:26.716Z,23.93
2017-06-23T09:42:54.943Z,24.97
2017-06-23T09:45:23.003Z,25.37
2017-06-23T09:47:51.131Z,25.97
2017-06-23T09:50:19.395Z,26.40
2017-06-23T09:52:47.537Z,26.37
2017-06-23T09:55:15.827Z,24.40
2017-06-23T09:57:44.131Z,27.40
2017-06-23T10:00:12.284Z,25.17
2017-06-23T10:02:40.436Z,25.93
2017-06-23T10:05:09.331Z,24.60
2017-06-23T10:07:37.398Z,23.30
2017-06-23T10:10:05.979Z,25.67
2017-06-23T10:12:34.980Z,23.23
2017-06-23T10:15:03.828Z,23.43
2017-06-23T10:17:32.023Z,23.87
2017-06-23T10:20:00.831Z,22.67
2017-06-23T10:22:29.160Z,22.63
2017-06-23T10:24:57.259Z,21.90
2017-06-23T10:27:25.487Z,23.40
2017-06-23T10:29:53.601Z,22.57
2017-06-23T10:32:21.716Z,21.67
2017-06-23T10:34:50.040Z,23.00
2017-06-23T10:37:19.399Z,21.10
2017-06-23T10:39:48.189Z,23.23
2017-06-23T10:42:17.180Z,23.60
2017-06-23T10:44:45.280Z,21.70
2017-06-23T10:47:13.389Z,24.27
2017-06-23T10:49:41.641Z,23.80
2017-06-23T10:52:09.743Z,22.90
2017-06-23T10:54:37.843Z,22.53
2017-06-23T10:57:06.251Z,21.63
2017-06-23T10:59:34.359Z,22.30
2017-06-23T11:02:02.497Z,23.20
2017-06-23T11:04:30.711Z,21.80
2017-06-23T11:06:58.860Z,23.33
2017-06-23T11:09:27.003Z,25.17
2017-06-23T11:11:55.222Z,22.93
2017-06-23T11:14:23.562Z,21.50
2017-06-23T11:16:51.667Z,21.37
2017-06-23T11:19:19.899Z,21.40
2017-06-23T11:21:48.056Z,21.90
2017-06-23T11:24:16.220Z,22.80
2017-06-23T11:26:44.484Z,25.13
2017-06-23T11:29:13.844Z,22.93
2017-06-23T11:31:42.691Z,21.60
2017-06-23T11:34:12.462Z,21.77
2017-06-23T11:36:41.152Z,20.33
2017-06-23T11:39:09.927Z,22.67
2017-06-23T11:41:38.147Z,22.07
2017-06-23T11:44:06.365Z,21.70
2017-06-23T11:46:34.557Z,21.27
2017-06-23T11:49:02.800Z,20.27
2017-06-23T11:51:30.899Z,21.23
2017-06-23T11:53:59.008Z,22.60
2017-06-23T11:56:27.372Z,20.80
2017-06-23T11:58:55.863Z,20.27
2017-06-23T12:01:24.101Z,20.03
2017-06-23T12:03:52.363Z,21.60
2017-06-23T12:06:20.500Z,22.20
2017-06-23T12:08:48.645Z,21.37
2017-06-23T12:11:16.880Z,22.47
2017-06-23T12:13:44.992Z,22.07
2017-06-23T12:16:13.108Z,22.07
2017-06-23T12:18:41.358Z,23.57
2017-06-23T12:21:09.512Z,21.10
2017-06-23T12:23:37.648Z,22.40
2017-06-23T12:26:05.956Z,22.63
2017-06-23T12:28:34.130Z,22.70
2017-06-23T12:31:02.311Z,21.87
2017-06-23T12:33:30.575Z,21.80
2017-06-23T12:35:58.676Z,20.73
2017-06-23T12:38:26.831Z,21.53
2017-06-23T12:40:55.128Z,23.30
2017-06-23T12:43:23.278Z,22.80
2017-06-23T12:45:51.388Z,22.30
2017-06-23T12:48:19.599Z,21.43
2017-06-23T12:50:47.855Z,25.43
2017-06-23T12:53:15.951Z,23.40
2017-06-23T12:55:44.172Z,23.43
2017-06-23T12:58:12.347Z,21.27
2017-06-23T13:00:40.774Z,24.40
2017-06-23T13:03:09.079Z,21.33
2017-06-23T13:05:37.183Z,21.13
2017-06-23T13:08:05.474Z,21.33
2017-06-23T13:10:33.755Z,22.13
2017-06-23T13:13:01.824Z,24.03
2017-06-23T13:15:29.931Z,22.70
2017-06-23T13:17:58.198Z,22.20
2017-06-23T13:20:26.347Z,22.97
2017-06-23T13:22:54.455Z,22.77
2017-06-23T13:25:22.730Z,22.77
2017-06-23T13:27:50.867Z,23.00
2017-06-23T13:30:18.979Z,24.50
2017-06-23T13:32:47.271Z,23.03
2017-06-23T13:35:15.411Z,22.97
2017-06-23T13:37:43.543Z,25.00
2017-06-23T13:40:11.759Z,22.07
2017-06-23T13:42:39.869Z,23.50
2017-06-23T13:45:07.943Z,24.00
2017-06-23T13:47:36.203Z,24.53
2017-06-23T13:50:04.424Z,23.70
2017-06-23T13:52:32.556Z,24.73
2017-06-23T13:55:00.878Z,26.17
2017-06-23T13:57:29.060Z,25.40
2017-06-23T13:59:57.188Z,27.17
2017-06-23T14:02:26.942Z,26.30
2017-06-23T14:04:55.743Z,27.17
2017-06-23T14:07:24.383Z,27.60
2017-06-23T14:09:54.032Z,26.80
2017-06-23T14:12:22.628Z,26.70
2017-06-23T14:14:52.067Z,27.63
2017-06-23T14:17:20.924Z,27.37
2017-06-23T14:19:49.717Z,27.67
2017-06-23T14:22:18.556Z,25.73
2017-06-23T14:24:48.203Z,27.77
2017-06-23T14:27:16.899Z,27.00
2017-06-23T14:29:45.484Z,28.13
2017-06-23T14:32:13.736Z,27.33
2017-06-23T14:34:41.895Z,26.73
2017-06-23T14:37:10.032Z,27.17
2017-06-23T14:39:38.203Z,27.10
2017-06-23T14:54:59.292Z,26.20
2017-06-23T14:57:28.084Z,29.40
2017-06-23T14:59:56.227Z,29.47
2017-06-23T15:02:24.583Z,28.23
2017-06-23T15:04:52.964Z,24.93
2017-06-23T15:07:21.312Z,26.33
2017-06-23T15:09:49.713Z,26.63
2017-06-23T15:12:19.287Z,27.37
2017-06-23T15:14:47.647Z,27.83
2017-06-23T15:17:15.924Z,28.60
2017-06-23T15:19:44.633Z,28.70
2017-06-23T15:22:13.216Z,28.50
2017-06-23T15:24:41.443Z,29.37
2017-06-23T15:27:10.884Z,26.80
2017-06-23T15:29:39.649Z,29.07
2017-06-23T15:32:07.923Z,28.37
2017-06-23T15:34:36.442Z,29.63
2017-06-23T15:37:05.037Z,29.10
2017-06-23T15:39:33.296Z,29.17
2017-06-23T15:42:01.375Z,29.30
2017-06-23T15:44:29.508Z,28.90
2017-06-23T15:46:58.911Z,30.63
2017-06-23T15:49:28.415Z,29.60
2017-06-23T15:51:57.859Z,30.17
2017-06-23T15:54:26.611Z,29.90
2017-06-23T15:56:54.751Z,28.60
2017-06-23T15:59:22.851Z,31.43
2017-06-23T16:01:51.626Z,28.53
2017-06-23T16:04:19.731Z,27.23
2017-06-23T16:06:47.991Z,28.17
2017-06-23T16:09:16.251Z,29.27
2017-06-23T16:11:44.316Z,28.60
2017-06-23T16:14:12.459Z,28.83
2017-06-23T16:16:40.695Z,27.97
2017-06-23T16:19:08.868Z,28.40
2017-06-23T16:21:37.056Z,29.57
2017-06-23T16:24:05.307Z,29.90
2017-06-23T16:26:33.439Z,26.90
2017-06-23T16:29:01.564Z,27.87
2017-06-23T16:31:29.791Z,28.77
2017-06-23T16:33:57.967Z,29.63
2017-06-23T16:36:26.615Z,29.23
2017-06-23T16:38:56.103Z,28.87
2017-06-23T16:41:24.704Z,28.80
2017-06-23T16:43:52.887Z,29.23
2017-06-23T16:46:21.103Z,29.17
2017-06-23T16:48:49.165Z,29.60
2017-06-23T16:51:17.865Z,28.17
2017-06-23T16:53:46.943Z,26.33
2017-06-23T16:56:15.754Z,29.80
2017-06-23T16:58:43.887Z,26.50
2017-06-23T17:01:13.348Z,29.17
2017-06-23T17:03:42.007Z,29.70
2017-06-23T17:06:10.655Z,28.87
2017-06-23T17:08:39.059Z,28.37
2017-06-23T17:11:07.612Z,28.97
2017-06-23T17:13:36.907Z,27.27
2017-06-23T17:16:05.755Z,27.90
2017-06-23T17:18:34.447Z,27.20
2017-06-23T17:21:03.191Z,25.67
2017-06-23T17:23:33.531Z,26.60
2017-06-23T17:26:02.085Z,29.43
2017-06-23T17:28:30.627Z,27.90
2017-06-23T17:30:59.627Z,27.47
2017-06-23T17:33:28.468Z,26.60
2017-06-23T17:35:57.823Z,28.07
2017-06-23T17:38:26.607Z,25.87
2017-06-23T17:40:55.399Z,26.87
2017-06-23T17:43:24.096Z,26.87
2017-06-23T17:45:52.804Z,26.60
2017-06-23T17:48:21.347Z,26.10
2017-06-23T17:50:50.152Z,25.37
2017-06-23T17:53:19.000Z,28.53
2017-06-23T17:55:47.102Z,24.83
2017-06-23T17:58:15.171Z,27.27
2017-06-23T18:00:43.343Z,26.97
2017-06-23T18:03:11.476Z,26.63
2017-06-23T18:05:39.643Z,27.33
2017-06-23T18:08:07.887Z,28.57
2017-06-23T18:10:36.174Z,25.00
2017-06-23T18:13:04.307Z,27.37
2017-06-23T18:15:32.559Z,26.43
2017-06-23T18:18:00.731Z,26.20
2017-06-23T18:20:29.267Z,24.20
2017-06-23T18:22:57.536Z,26.20
2017-06-23T18:25:26.139Z,27.70
2017-06-23T18:27:54.327Z,26.20
2017-06-23T18:30:22.944Z,25.30
2017-06-23T18:32:51.119Z,24.70
2017-06-23T18:35:19.199Z,28.97
2017-06-23T18:37:47.405Z,28.23
2017-06-23T18:40:15.511Z,27.00
2017-06-23T18:42:43.666Z,29.00
2017-06-23T18:45:11.895Z,26.10
2017-06-23T18:47:39.987Z,26.83
2017-06-23T18:50:08.067Z,27.33
2017-06-23T18:52:36.459Z,25.20
2017-06-23T18:55:04.600Z,26.47
2017-06-23T18:57:32.695Z,25.70
2017-06-23T19:00:00.910Z,25.80
2017-06-23T19:02:28.968Z,24.17
2017-06-23T19:04:57.071Z,26.53
2017-06-23T19:07:25.336Z,25.50
2017-06-23T19:09:54.224Z,25.10
2017-06-23T19:12:22.443Z,25.37
2017-06-23T19:14:51.807Z,26.13
2017-06-23T19:17:20.366Z,25.33
2017-06-23T19:19:49.020Z,27.87
2017-06-23T19:22:18.569Z,24.80
2017-06-23T19:24:46.671Z,25.10
2017-06-23T19:27:15.171Z,26.60
2017-06-23T19:29:44.028Z,26.17
2017-06-23T19:32:12.759Z,26.40
2017-06-23T19:34:42.215Z,26.93
2017-06-23T19:37:10.999Z,28.07
2017-06-23T19:39:39.896Z,29.07
2017-06-23T19:42:08.100Z,29.57
2017-06-23T19:44:36.311Z,29.93
2017-06-23T19:47:04.478Z,32.57
2017-06-23T19:49:34.040Z,30.90
2017-06-23T19:52:02.736Z,29.77
2017-06-23T19:54:31.343Z,31.47
2017-06-23T19:57:00.091Z,32.70
2017-06-23T19:59:28.835Z,32.10
2017-06-23T20:01:58.289Z,32.17
2017-06-23T20:04:27.070Z,31.87
2017-06-23T20:06:55.976Z,32.33
2017-06-23T20:09:24.855Z,30.77
2017-06-23T20:11:53.453Z,30.77
2017-06-23T20:14:21.875Z,33.13
2017-06-23T20:16:51.059Z,30.27
2017-06-23T20:19:19.150Z,34.63
2017-06-23T20:21:48.807Z,31.93
2017-06-23T20:24:17.547Z,32.53
2017-06-23T20:26:45.727Z,31.00
2017-06-23T20:29:13.935Z,31.20
2017-06-23T20:31:42.751Z,31.50
2017-06-23T20:34:10.923Z,33.67
2017-06-23T20:36:39.809Z,31.53
2017-06-23T20:39:07.919Z,33.10
2017-06-23T20:41:35.992Z,31.57
2017-06-23T20:44:04.256Z,34.80
2017-06-23T20:46:32.489Z,34.03
2017-06-23T20:49:00.604Z,35.13
2017-06-23T20:51:28.879Z,35.20
2017-06-23T20:53:57.103Z,35.87
2017-06-23T20:56:25.663Z,35.50
2017-06-23T20:58:55.064Z,36.80
2017-06-23T21:01:24.429Z,41.27
2017-06-23T21:03:52.565Z,36.70
2017-06-23T21:06:20.823Z,35.97
2017-06-23T21:08:48.965Z,36.10
2017-06-23T21:11:18.107Z,36.63
2017-06-23T21:13:46.359Z,38.50
2017-06-23T21:16:14.615Z,36.90
2017-06-23T21:18:42.679Z,38.20
2017-06-23T21:21:10.957Z,36.00
2017-06-23T21:23:39.063Z,37.20
2017-06-23T21:26:07.287Z,35.07
2017-06-23T21:28:35.503Z,38.53
2017-06-23T21:31:03.672Z,36.10
2017-06-23T21:33:31.808Z,35.83
2017-06-23T21:36:00.104Z,34.90
2017-06-23T21:38:28.235Z,35.90
2017-06-23T21:41:07.816Z,36.90
2017-06-23T21:43:36.239Z,34.97
2017-06-23T21:46:04.319Z,36.90
2017-06-23T21:48:32.581Z,36.33
2017-06-23T21:51:02.103Z,36.13
2017-06-23T21:53:30.851Z,34.53
2017-06-23T21:55:59.071Z,36.80
2017-06-23T21:58:27.711Z,36.70
2017-06-23T22:00:55.839Z,37.93
2017-06-23T22:03:24.795Z,38.70
2017-06-23T22:05:52.896Z,37.17
2017-06-23T22:08:21.643Z,36.27
2017-06-23T22:10:50.639Z,39.70
2017-06-23T22:13:19.229Z,35.50
2017-06-23T22:15:47.407Z,37.77
2017-06-23T22:18:15.776Z,37.40
2017-06-23T22:20:44.455Z,35.30
2017-06-23T22:23:13.152Z,36.27
2017-06-23T22:25:42.207Z,37.97
2017-06-23T22:28:11.347Z,39.20
2017-06-23T22:30:39.491Z,38.97
2017-06-23T22:33:08.095Z,37.63
2017-06-23T22:35:36.748Z,39.57
2017-06-23T22:38:06.192Z,37.50
2017-06-23T22:40:35.135Z,38.37
2017-06-23T22:43:03.885Z,38.77
2017-06-23T22:45:31.999Z,39.37
2017-06-23T22:48:01.375Z,37.43
2017-06-23T22:50:30.039Z,39.10
2017-06-23T22:52:58.534Z,38.60
2017-06-23T22:55:27.371Z,40.63
2017-06-23T22:57:56.819Z,37.77
2017-06-23T23:00:25.406Z,39.30
2017-06-23T23:02:54.110Z,38.33
2017-06-23T23:05:22.724Z,37.40
2017-06-23T23:07:51.983Z,38.47
2017-06-23T23:10:20.243Z,38.27
2017-06-23T23:12:48.341Z,37.90
2017-06-23T23:15:16.499Z,40.27
2017-06-23T23:17:44.763Z,37.57
2017-06-23T23:20:13.039Z,38.27
2017-06-23T23:22:41.451Z,37.57
2017-06-23T23:25:10.220Z,37.50
2017-06-23T23:27:38.919Z,38.37
2017-06-23T23:30:07.812Z,36.77
2017-06-23T23:32:36.759Z,37.57
2017-06-23T23:35:06.107Z,38.13
2017-06-23T23:37:34.999Z,36.90
2017-06-23T23:40:03.226Z,38.13
2017-06-23T23:42:31.323Z,37.57
2017-06-23T23:44:59.459Z,38.83
2017-06-23T23:47:27.691Z,38.13
2017-06-23T23:49:56.983Z,36.30
2017-06-23T23:52:25.127Z,39.00
2017-06-23T23:54:53.371Z,38.90
2017-06-23T23:57:21.539Z,37.20
2017-06-23T23:59:49.703Z,38.10
